Time;durP1;ratioP1;P1;durP2;ratioP2;P2;SDS_P1;SDS_P2;PMS_P1;PMS_P2;Temp;Humidity;BMP_temperature;BMP_pressure;BME280_temperature;BME280_humidity;BME280_pressure;Samples;Min_cycle;Max_cycle;Signal;HPM_P1;HPM_P2
2021/12/01 00:00:33;;;;;;;50.22;24.02;;;;;;;;;;6073037;23;20024;-91
2021/12/01 00:03:00;;;;;;;61.15;27.65;;;;;;;;;;6095761;23;20026;-90
2021/12/01 00:05:27;;;;;;;54.45;25.73;;;;;;;;;;6073082;23;20466;-91
2021/12/01 00:07:54;;;;;;;53.17;26.13;;;;;;;;;;6071822;23;20022;-90
2021/12/01 00:10:21;;;;;;;59.45;26.67;;;;;;;;;;6072767;23;20492;-90
2021/12/01 00:12:47;;;;;;;50.90;25.75;;;;;;;;;;6072456;23;20401;-90
2021/12/01 00:15:14;;;;;;;56.10;25.98;;;;;;;;;;6096705;23;20029;-92
2021/12/01 00:17:40;;;;;;;55.67;25.35;;;;;;;;;;6072390;23;20104;-91
2021/12/01 00:20:08;;;;;;;58.88;26.95;;;;;;;;;;6072744;23;20478;-91
2021/12/01 00:22:34;;;;;;;53.90;25.38;;;;;;;;;;6072497;23;20024;-91
2021/12/01 00:25:00;;;;;;;41.38;21.60;;;;;;;;;;6072535;23;20014;-90
2021/12/01 00:27:26;;;;;;;48.35;24.58;;;;;;;;;;6072800;23;20022;-91
2021/12/01 00:29:52;;;;;;;52.00;24.77;;;;;;;;;;6072265;23;20025;-90
2021/12/01 00:32:18;;;;;;;51.75;22.58;;;;;;;;;;6072391;23;20018;-89
2021/12/01 00:34:44;;;;;;;48.22;23.50;;;;;;;;;;6071779;23;20457;-90
2021/12/01 00:37:10;;;;;;;46.20;23.38;;;;;;;;;;6072852;23;20022;-90
2021/12/01 00:39:36;;;;;;;44.78;22.85;;;;;;;;;;6072145;23;20017;-90
2021/12/01 00:42:02;;;;;;;54.92;24.00;;;;;;;;;;6072212;23;20018;-91
2021/12/01 00:44:30;;;;;;;42.40;21.92;;;;;;;;;;6096092;23;20022;-90
2021/12/01 00:47:05;;;;;;;46.55;23.50;;;;;;;;;;6071574;23;20013;-89
2021/12/01 00:49:32;;;;;;;53.22;24.20;;;;;;;;;;6072072;23;20022;-91
2021/12/01 00:51:58;;;;;;;44.50;22.17;;;;;;;;;;6095980;23;20018;-90
2021/12/01 00:54:24;;;;;;;46.13;22.67;;;;;;;;;;6072214;23;20022;-90
2021/12/01 00:56:50;;;;;;;52.00;22.33;;;;;;;;;;6071898;23;20017;-90
2021/12/01 00:59:17;;;;;;;50.67;23.20;;;;;;;;;;6072421;23;20040;-90
2021/12/01 01:01:43;;;;;;;45.97;21.73;;;;;;;;;;6071678;23;20020;-90
2021/12/01 01:04:10;;;;;;;47.80;21.40;;;;;;;;;;6072122;23;20066;-89
2021/12/01 01:06:37;;;;;;;44.45;22.50;;;;;;;;;;6072359;23;20520;-90
2021/12/01 01:09:05;;;;;;;45.70;23.02;;;;;;;;;;6071733;23;20450;-89
2021/12/01 01:17:00;;;;;;;44.55;20.85;;;;;;;;;;6095227;23;20109;-91
2021/12/01 01:19:26;;;;;;;41.03;21.30;;;;;;;;;;6072149;23;20811;-91
2021/12/01 01:21:54;;;;;;;44.35;20.52;;;;;;;;;;6071705;23;20018;-91
2021/12/01 01:24:21;;;;;;;38.75;19.83;;;;;;;;;;6072552;23;20108;-89
2021/12/01 01:26:47;;;;;;;40.28;18.27;;;;;;;;;;6071907;23;20018;-90
2021/12/01 01:29:13;;;;;;;35.15;17.92;;;;;;;;;;6071952;23;20108;-91
2021/12/01 01:31:40;;;;;;;30.92;17.25;;;;;;;;;;6071929;23;20104;-91
2021/12/01 01:34:06;;;;;;;35.05;16.10;;;;;;;;;;6071338;23;20025;-90
2021/12/01 01:36:32;;;;;;;28.05;15.00;;;;;;;;;;6096115;23;20022;-90
2021/12/01 01:38:59;;;;;;;27.17;13.93;;;;;;;;;;6071573;23;20099;-90
2021/12/01 01:41:25;;;;;;;24.95;13.05;;;;;;;;;;6071950;23;20021;-90
2021/12/01 01:43:51;;;;;;;25.55;13.50;;;;;;;;;;6071806;23;20104;-90
2021/12/01 01:46:18;;;;;;;20.25;11.25;;;;;;;;;;6071313;23;20045;-90
2021/12/01 01:49:38;;;;;;;24.08;12.93;;;;;;;;;;6071408;23;20025;-90
2021/12/01 01:51:34;;;;;;;26.63;11.93;;;;;;;;;;6084058;23;20403;-91
2021/12/01 01:54:00;;;;;;;16.98;10.32;;;;;;;;;;6070998;23;20025;-91
2021/12/01 01:56:27;;;;;;;21.27;10.05;;;;;;;;;;6071814;23;20101;-92
2021/12/01 01:58:54;;;;;;;19.40;10.48;;;;;;;;;;6095166;23;20018;-90
2021/12/01 02:01:39;;;;;;;17.70;10.30;;;;;;;;;;6095839;23;20109;-91
2021/12/01 02:04:07;;;;;;;17.13;9.48;;;;;;;;;;6071578;23;20078;-92
2021/12/01 02:06:33;;;;;;;14.52;9.07;;;;;;;;;;6095492;23;20049;-92
2021/12/01 02:08:59;;;;;;;16.80;8.77;;;;;;;;;;6095243;23;20029;-91
2021/12/01 02:11:27;;;;;;;16.40;8.43;;;;;;;;;;6072139;23;20014;-92
2021/12/01 02:13:53;;;;;;;13.82;7.47;;;;;;;;;;6071406;23;20028;-91
2021/12/01 02:16:19;;;;;;;13.75;8.13;;;;;;;;;;6054983;23;20042;-91
2021/12/01 02:18:46;;;;;;;9.88;6.53;;;;;;;;;;6090629;23;20124;-91
2021/12/01 02:21:14;;;;;;;14.52;7.55;;;;;;;;;;6094477;23;20021;-92
2021/12/01 02:23:47;;;;;;;10.77;6.95;;;;;;;;;;6071767;23;20030;-91
2021/12/01 02:26:14;;;;;;;9.85;6.80;;;;;;;;;;6071751;23;20068;-91
2021/12/01 02:28:42;;;;;;;10.93;6.68;;;;;;;;;;6095306;23;20076;-90
2021/12/01 02:31:08;;;;;;;9.43;6.55;;;;;;;;;;6095854;23;20018;-91
2021/12/01 02:33:34;;;;;;;10.27;6.13;;;;;;;;;;6096012;23;20110;-91
2021/12/01 02:36:00;;;;;;;11.43;6.60;;;;;;;;;;6071748;23;20073;-91
2021/12/01 02:38:27;;;;;;;9.50;5.47;;;;;;;;;;6095575;23;20025;-90
2021/12/01 02:40:53;;;;;;;11.02;6.45;;;;;;;;;;6071273;23;20022;-90
2021/12/01 02:43:24;;;;;;;11.75;6.97;;;;;;;;;;6054340;23;20019;-91
2021/12/01 02:45:51;;;;;;;9.82;6.82;;;;;;;;;;6068783;23;20014;-91
2021/12/01 02:48:17;;;;;;;9.63;6.22;;;;;;;;;;6073158;23;20025;-90
2021/12/01 02:50:43;;;;;;;10.82;6.00;;;;;;;;;;6097409;23;20085;-91
2021/12/01 02:53:09;;;;;;;9.77;6.05;;;;;;;;;;6073321;23;20358;-90
2021/12/01 02:55:40;;;;;;;8.60;5.68;;;;;;;;;;6073610;23;20343;-91
2021/12/01 02:58:06;;;;;;;11.23;5.88;;;;;;;;;;6072838;23;20490;-92
2021/12/01 03:00:32;;;;;;;11.13;5.32;;;;;;;;;;6097707;23;20014;-92
2021/12/01 03:02:58;;;;;;;9.35;5.13;;;;;;;;;;6096948;23;20409;-91
2021/12/01 03:05:24;;;;;;;10.07;5.85;;;;;;;;;;6097360;23;20018;-90
2021/12/01 03:07:50;;;;;;;8.73;5.32;;;;;;;;;;6072968;23;20049;-91
2021/12/01 03:10:16;;;;;;;7.60;4.57;;;;;;;;;;6097208;23;20733;-90
2021/12/01 03:12:43;;;;;;;8.00;4.05;;;;;;;;;;6072881;23;20017;-89
2021/12/01 03:15:10;;;;;;;7.57;4.63;;;;;;;;;;6073046;23;20478;-91
2021/12/01 03:17:36;;;;;;;8.75;4.30;;;;;;;;;;6073118;23;20025;-91
2021/12/01 03:20:03;;;;;;;6.10;3.63;;;;;;;;;;6073152;23;20028;-91
2021/12/01 03:22:29;;;;;;;7.85;3.58;;;;;;;;;;6097382;23;20022;-91
2021/12/01 03:24:55;;;;;;;7.63;3.75;;;;;;;;;;6073197;23;20084;-91
2021/12/01 03:27:21;;;;;;;12.27;3.78;;;;;;;;;;6072817;23;20018;-91
2021/12/01 03:29:51;;;;;;;7.97;3.20;;;;;;;;;;6097024;23;20147;-92
2021/12/01 03:32:17;;;;;;;7.57;3.30;;;;;;;;;;6097091;23;20450;-91
2021/12/01 03:34:44;;;;;;;10.73;2.80;;;;;;;;;;6073066;23;20021;-91
2021/12/01 03:37:11;;;;;;;6.93;2.97;;;;;;;;;;6073231;23;20022;-91
2021/12/01 03:39:37;;;;;;;9.45;3.75;;;;;;;;;;6073028;23;20014;-91
2021/12/01 03:42:05;;;;;;;8.52;3.22;;;;;;;;;;6072560;23;20018;-91
2021/12/01 03:44:32;;;;;;;9.80;3.58;;;;;;;;;;6096891;23;20097;-91
2021/12/01 03:46:58;;;;;;;10.88;3.75;;;;;;;;;;6096765;23;20046;-91
2021/12/01 03:49:24;;;;;;;6.20;3.33;;;;;;;;;;6072691;23;20093;-91
2021/12/01 03:51:50;;;;;;;11.88;3.60;;;;;;;;;;6096729;23;20024;-91
2021/12/01 03:54:16;;;;;;;10.80;3.83;;;;;;;;;;6073064;23;20017;-90
2021/12/01 03:56:42;;;;;;;7.25;3.72;;;;;;;;;;6072071;23;20093;-92
2021/12/01 03:59:08;;;;;;;8.18;3.28;;;;;;;;;;6072796;23;20018;-91
2021/12/01 04:01:34;;;;;;;8.23;4.00;;;;;;;;;;6072962;23;20052;-91
2021/12/01 04:04:00;;;;;;;6.53;3.97;;;;;;;;;;6072854;23;20026;-92
2021/12/01 04:06:27;;;;;;;7.63;4.10;;;;;;;;;;6072972;23;20014;-91
2021/12/01 04:08:53;;;;;;;9.15;4.10;;;;;;;;;;6072249;23;20022;-91
2021/12/01 04:11:19;;;;;;;9.82;3.55;;;;;;;;;;6072437;23;20022;-92
2021/12/01 04:13:45;;;;;;;5.95;3.63;;;;;;;;;;6072651;23;20520;-92
2021/12/01 04:16:11;;;;;;;8.90;3.45;;;;;;;;;;6072743;23;20026;-89
2021/12/01 04:18:39;;;;;;;7.35;3.30;;;;;;;;;;6096796;23;20459;-92
2021/12/01 04:21:05;;;;;;;7.55;3.72;;;;;;;;;;6072625;23;20064;-91
2021/12/01 04:23:34;;;;;;;7.43;4.00;;;;;;;;;;6072751;23;20022;-92
2021/12/01 04:26:00;;;;;;;4.43;3.10;;;;;;;;;;6072251;23;20018;-91
2021/12/01 04:28:26;;;;;;;6.90;3.65;;;;;;;;;;6072562;23;20014;-92
2021/12/01 04:30:52;;;;;;;5.47;3.30;;;;;;;;;;6072617;23;20105;-91
2021/12/01 04:33:18;;;;;;;6.18;3.05;;;;;;;;;;6072589;23;20113;-90
2021/12/01 04:35:46;;;;;;;6.78;3.47;;;;;;;;;;6072544;23;20014;-92
2021/12/01 04:38:12;;;;;;;6.95;3.40;;;;;;;;;;6072663;23;20018;-92
2021/12/01 04:40:38;;;;;;;5.07;2.88;;;;;;;;;;6072224;23;20485;-91
2021/12/01 04:43:04;;;;;;;4.88;3.30;;;;;;;;;;6072052;23;20018;-92
2021/12/01 04:45:32;;;;;;;6.57;3.28;;;;;;;;;;6071436;23;20014;-90
2021/12/01 04:47:58;;;;;;;5.45;3.20;;;;;;;;;;6071463;23;20017;-92
2021/12/01 04:50:26;;;;;;;4.13;2.72;;;;;;;;;;6072490;23;20446;-91
2021/12/01 04:52:55;;;;;;;3.63;2.78;;;;;;;;;;6095833;23;20053;-91
2021/12/01 04:55:21;;;;;;;4.30;2.80;;;;;;;;;;6072304;23;20501;-90
2021/12/01 04:57:48;;;;;;;3.92;2.90;;;;;;;;;;6095586;23;20073;-92
2021/12/01 05:00:16;;;;;;;5.50;2.72;;;;;;;;;;6071411;23;20026;-92
2021/12/01 05:02:42;;;;;;;4.35;2.67;;;;;;;;;;6071977;23;20107;-92
2021/12/01 05:05:08;;;;;;;3.47;2.60;;;;;;;;;;6072587;23;20021;-92
2021/12/01 05:07:34;;;;;;;4.57;2.85;;;;;;;;;;6095743;23;20072;-90
2021/12/01 05:10:00;;;;;;;5.35;3.35;;;;;;;;;;6072091;23;20022;-92
2021/12/01 05:12:26;;;;;;;3.15;2.53;;;;;;;;;;6072228;23;20056;-92
2021/12/01 05:14:53;;;;;;;4.70;3.60;;;;;;;;;;6071749;23;20014;-90
2021/12/01 05:17:20;;;;;;;3.65;2.67;;;;;;;;;;6072172;23;20065;-93
2021/12/01 05:19:46;;;;;;;3.15;2.75;;;;;;;;;;6072111;23;20018;-92
2021/12/01 05:22:12;;;;;;;4.03;2.92;;;;;;;;;;6071891;23;20358;-92
2021/12/01 05:24:38;;;;;;;3.95;3.30;;;;;;;;;;6072361;23;20017;-91
2021/12/01 05:27:05;;;;;;;4.72;3.33;;;;;;;;;;6071992;23;20022;-92
2021/12/01 05:29:31;;;;;;;4.30;3.40;;;;;;;;;;6072101;23;20519;-91
2021/12/01 05:31:57;;;;;;;4.60;3.70;;;;;;;;;;6072163;23;20018;-93
2021/12/01 05:34:24;;;;;;;4.32;3.42;;;;;;;;;;6071872;23;20029;-92
2021/12/01 05:36:50;;;;;;;5.13;3.75;;;;;;;;;;6071352;23;20014;-92
2021/12/01 05:39:17;;;;;;;4.82;3.67;;;;;;;;;;6072179;23;20021;-91
2021/12/01 05:41:43;;;;;;;6.75;4.43;;;;;;;;;;6071776;23;20020;-91
2021/12/01 05:44:09;;;;;;;6.78;3.67;;;;;;;;;;6072027;23;20023;-92
2021/12/01 05:46:35;;;;;;;4.75;3.70;;;;;;;;;;6071815;23;20018;-91
2021/12/01 05:49:01;;;;;;;4.65;4.13;;;;;;;;;;6071798;23;20041;-91
2021/12/01 05:51:27;;;;;;;3.90;3.47;;;;;;;;;;6071630;23;20037;-91
2021/12/01 05:53:54;;;;;;;6.07;3.70;;;;;;;;;;6072055;23;20013;-91
2021/12/01 05:56:20;;;;;;;4.97;3.97;;;;;;;;;;6072058;23;20057;-91
2021/12/01 05:58:46;;;;;;;4.32;3.30;;;;;;;;;;6071635;23;20089;-93
2021/12/01 06:01:12;;;;;;;4.72;3.38;;;;;;;;;;6070875;23;20462;-92
2021/12/01 06:03:39;;;;;;;4.13;3.50;;;;;;;;;;6071201;23;20022;-91
2021/12/01 06:06:05;;;;;;;4.05;2.92;;;;;;;;;;6070579;23;20093;-91
2021/12/01 06:08:31;;;;;;;3.80;2.70;;;;;;;;;;6071850;23;20355;-92
2021/12/01 06:10:57;;;;;;;3.30;2.75;;;;;;;;;;6070983;23;20021;-91
2021/12/01 06:13:24;;;;;;;5.35;3.58;;;;;;;;;;6071114;23;20014;-91
2021/12/01 06:15:51;;;;;;;5.47;3.17;;;;;;;;;;6071131;23;20347;-89
2021/12/01 06:18:17;;;;;;;4.53;3.00;;;;;;;;;;6072344;23;20014;-91
2021/12/01 06:20:43;;;;;;;3.08;2.63;;;;;;;;;;6071804;23;20025;-91
2021/12/01 06:23:09;;;;;;;3.88;2.80;;;;;;;;;;6073622;23;20025;-93
2021/12/01 06:25:36;;;;;;;2.47;2.25;;;;;;;;;;6073943;23;20014;-92
2021/12/01 06:28:02;;;;;;;3.10;2.45;;;;;;;;;;6073868;23;20029;-92
2021/12/01 06:30:31;;;;;;;2.47;2.28;;;;;;;;;;6073349;23;20014;-93
2021/12/01 06:32:57;;;;;;;4.55;2.70;;;;;;;;;;6072791;23;20092;-91
2021/12/01 06:35:23;;;;;;;2.63;2.30;;;;;;;;;;6073397;23;20100;-92
2021/12/01 06:37:55;;;;;;;2.83;2.30;;;;;;;;;;6073808;23;20046;-94
2021/12/01 06:40:21;;;;;;;2.58;2.15;;;;;;;;;;6073194;23;20025;-93
2021/12/01 06:42:47;;;;;;;4.05;2.60;;;;;;;;;;6073067;23;20026;-92
2021/12/01 06:45:13;;;;;;;2.45;2.15;;;;;;;;;;6072744;23;20053;-92
2021/12/01 06:47:40;;;;;;;3.38;2.03;;;;;;;;;;6072833;23;20088;-90
2021/12/01 06:50:07;;;;;;;3.95;2.60;;;;;;;;;;6071413;23;20073;-90
2021/12/01 06:52:33;;;;;;;2.65;2.30;;;;;;;;;;6073583;23;20013;-90
2021/12/01 06:55:00;;;;;;;3.28;2.85;;;;;;;;;;6072799;23;20026;-90
2021/12/01 06:57:26;;;;;;;3.08;2.63;;;;;;;;;;6097710;23;20025;-90
2021/12/01 06:59:52;;;;;;;2.80;2.47;;;;;;;;;;6073348;23;20069;-92
2021/12/01 07:02:18;;;;;;;3.08;2.30;;;;;;;;;;6071324;23;20024;-92
2021/12/01 07:04:45;;;;;;;2.88;2.50;;;;;;;;;;6071375;23;20029;-92
2021/12/01 07:07:11;;;;;;;2.60;2.33;;;;;;;;;;6072029;23;20018;-92
2021/12/01 07:09:37;;;;;;;3.10;2.60;;;;;;;;;;6073086;23;20022;-92
2021/12/01 07:12:03;;;;;;;2.17;1.88;;;;;;;;;;6073009;23;20022;-91
2021/12/01 07:14:29;;;;;;;2.83;2.30;;;;;;;;;;6072920;23;20021;-91
2021/12/01 07:16:55;;;;;;;2.90;2.30;;;;;;;;;;6095671;23;20022;-91
2021/12/01 07:19:21;;;;;;;3.50;2.88;;;;;;;;;;6073281;23;20022;-93
2021/12/01 07:21:47;;;;;;;2.67;2.45;;;;;;;;;;6073040;23;20029;-91
2021/12/01 07:24:15;;;;;;;2.75;2.50;;;;;;;;;;6071769;23;20022;-94
2021/12/01 07:26:41;;;;;;;2.92;2.47;;;;;;;;;;6070708;23;20022;-93
2021/12/01 07:29:07;;;;;;;4.57;2.92;;;;;;;;;;6073217;23;20343;-93
2021/12/01 07:31:33;;;;;;;3.33;2.95;;;;;;;;;;6095768;23;20120;-92
2021/12/01 07:33:59;;;;;;;3.25;2.38;;;;;;;;;;6071814;23;20096;-94
2021/12/01 07:36:25;;;;;;;5.40;3.25;;;;;;;;;;6071332;23;20056;-90
2021/12/01 07:38:53;;;;;;;5.05;3.67;;;;;;;;;;6071242;23;20014;-90
2021/12/01 07:41:19;;;;;;;3.97;3.53;;;;;;;;;;6072824;23;20029;-90
2021/12/01 07:43:45;;;;;;;4.47;3.63;;;;;;;;;;6071591;23;20213;-90
2021/12/01 07:46:12;;;;;;;3.95;3.20;;;;;;;;;;6072192;23;20068;-90
2021/12/01 07:48:38;;;;;;;5.93;3.40;;;;;;;;;;6072213;23;20481;-90
2021/12/01 07:51:04;;;;;;;5.20;3.78;;;;;;;;;;6071067;23;20101;-90
2021/12/01 07:53:31;;;;;;;5.20;3.85;;;;;;;;;;6096225;23;20502;-90
2021/12/01 07:55:57;;;;;;;5.53;4.00;;;;;;;;;;6095592;23;20014;-90
2021/12/01 07:58:23;;;;;;;5.68;4.22;;;;;;;;;;6096842;23;20378;-90
2021/12/01 08:00:49;;;;;;;5.75;4.60;;;;;;;;;;6072430;23;20018;-91
2021/12/01 08:03:15;;;;;;;7.20;4.55;;;;;;;;;;6095839;23;20028;-90
2021/12/01 08:05:41;;;;;;;6.95;4.40;;;;;;;;;;6071178;23;20331;-90
2021/12/01 08:08:08;;;;;;;7.93;4.53;;;;;;;;;;6095876;23;20126;-90
2021/12/01 08:10:34;;;;;;;7.10;4.82;;;;;;;;;;6072432;23;20359;-90
2021/12/01 08:13:01;;;;;;;7.13;4.22;;;;;;;;;;6071730;23;20358;-90
2021/12/01 08:15:27;;;;;;;8.20;4.68;;;;;;;;;;6070103;23;20054;-91
2021/12/01 08:17:54;;;;;;;5.80;4.55;;;;;;;;;;6071126;23;20029;-91
2021/12/01 08:20:20;;;;;;;6.88;4.70;;;;;;;;;;6072276;23;20029;-91
2021/12/01 08:22:46;;;;;;;7.65;4.50;;;;;;;;;;6096119;23;20022;-95
2021/12/01 08:25:13;;;;;;;10.32;5.07;;;;;;;;;;6072624;23;20014;-94
2021/12/01 08:27:39;;;;;;;8.32;5.35;;;;;;;;;;6096673;23;20018;-92
2021/12/01 08:30:06;;;;;;;6.45;4.85;;;;;;;;;;6096244;23;20105;-91
2021/12/01 08:32:32;;;;;;;7.80;5.00;;;;;;;;;;6072059;23;20017;-91
2021/12/01 08:34:58;;;;;;;7.25;5.13;;;;;;;;;;6096176;23;20014;-91
2021/12/01 08:37:24;;;;;;;8.48;4.68;;;;;;;;;;6072835;23;20492;-91
2021/12/01 08:39:51;;;;;;;6.10;3.65;;;;;;;;;;6096581;23;20014;-92
2021/12/01 08:42:21;;;;;;;8.63;4.88;;;;;;;;;;6096242;23;20018;-93
2021/12/01 08:44:48;;;;;;;10.30;4.18;;;;;;;;;;6095850;23;20461;-89
2021/12/01 08:47:20;;;;;;;8.38;4.45;;;;;;;;;;6071645;23;20411;-92
2021/12/01 08:49:47;;;;;;;7.63;4.05;;;;;;;;;;6096072;23;20022;-91
2021/12/01 08:52:13;;;;;;;9.60;4.05;;;;;;;;;;6096473;23;20446;-91
2021/12/01 08:54:39;;;;;;;7.72;3.72;;;;;;;;;;6071833;23;20077;-91
2021/12/01 08:57:05;;;;;;;12.00;3.47;;;;;;;;;;6095818;23;20021;-92
2021/12/01 08:59:32;;;;;;;6.35;2.90;;;;;;;;;;6095647;23;20073;-91
2021/12/01 09:02:01;;;;;;;14.60;3.70;;;;;;;;;;6094782;23;20024;-92
2021/12/01 09:04:28;;;;;;;10.38;3.42;;;;;;;;;;6071650;23;20014;-91
2021/12/01 09:06:54;;;;;;;10.93;3.60;;;;;;;;;;6071687;23;20064;-91
2021/12/01 09:09:20;;;;;;;10.15;2.72;;;;;;;;;;6071913;23;20014;-91
2021/12/01 09:11:47;;;;;;;14.50;3.50;;;;;;;;;;6071334;23;20017;-91
2021/12/01 09:14:13;;;;;;;9.82;2.70;;;;;;;;;;6071276;23;20014;-91
2021/12/01 09:16:40;;;;;;;11.80;2.33;;;;;;;;;;6072000;23;20022;-92
2021/12/01 09:19:06;;;;;;;11.50;3.42;;;;;;;;;;6095897;23;20018;-90
2021/12/01 09:21:32;;;;;;;5.25;2.20;;;;;;;;;;6095922;23;20081;-91
2021/12/01 09:23:58;;;;;;;8.25;2.30;;;;;;;;;;6071458;23;20053;-92
2021/12/01 09:26:24;;;;;;;10.95;2.28;;;;;;;;;;6071961;23;20014;-93
2021/12/01 09:28:50;;;;;;;11.02;2.05;;;;;;;;;;6071601;23;20022;-91
2021/12/01 09:31:16;;;;;;;11.15;1.80;;;;;;;;;;6071896;23;20024;-91
2021/12/01 09:33:42;;;;;;;11.35;2.08;;;;;;;;;;6071601;23;20018;-93
2021/12/01 09:36:08;;;;;;;6.25;2.05;;;;;;;;;;6070968;23;20022;-93
2021/12/01 09:38:34;;;;;;;6.20;1.60;;;;;;;;;;6095086;23;20017;-92
2021/12/01 09:41:00;;;;;;;14.20;2.05;;;;;;;;;;6071191;23;20092;-94
2021/12/01 09:43:28;;;;;;;8.15;1.83;;;;;;;;;;6070754;23;20021;-94
2021/12/01 09:45:55;;;;;;;9.32;2.05;;;;;;;;;;6071302;23;20017;-93
2021/12/01 09:48:21;;;;;;;12.88;1.65;;;;;;;;;;6070605;23;20061;-94
2021/12/01 09:50:47;;;;;;;8.57;1.88;;;;;;;;;;6070710;23;20350;-95
2021/12/01 09:53:14;;;;;;;11.65;1.67;;;;;;;;;;6071377;23;20014;-94
2021/12/01 09:55:40;;;;;;;11.68;1.60;;;;;;;;;;6071953;23;20100;-94
2021/12/01 09:58:08;;;;;;;9.18;1.40;;;;;;;;;;6071520;23;20014;-95
2021/12/01 10:00:35;;;;;;;11.38;2.08;;;;;;;;;;6072018;23;20386;-95
2021/12/01 10:03:01;;;;;;;7.50;1.52;;;;;;;;;;6071288;23;20026;-95
2021/12/01 10:05:46;;;;;;;8.88;1.50;;;;;;;;;;6071785;23;20018;-92
2021/12/01 10:08:17;;;;;;;15.95;2.00;;;;;;;;;;6071812;23;20018;-94
2021/12/01 10:10:43;;;;;;;12.27;1.95;;;;;;;;;;6071386;23;20018;-92
2021/12/01 10:13:09;;;;;;;11.95;1.58;;;;;;;;;;6071170;23;20100;-93
2021/12/01 10:15:35;;;;;;;7.55;1.75;;;;;;;;;;6071932;23;20018;-91
2021/12/01 10:18:11;;;;;;;8.05;1.63;;;;;;;;;;6071288;23;20026;-93
2021/12/01 10:20:37;;;;;;;9.93;1.90;;;;;;;;;;6071669;23;20386;-92
2021/12/01 10:23:11;;;;;;;9.88;2.10;;;;;;;;;;6070819;23;20023;-94
2021/12/01 10:25:38;;;;;;;12.65;2.10;;;;;;;;;;6071635;23;20025;-91
2021/12/01 10:28:04;;;;;;;9.38;1.83;;;;;;;;;;6070248;23;20073;-91
2021/12/01 10:30:38;;;;;;;15.85;2.00;;;;;;;;;;6095164;23;20053;-91
2021/12/01 10:33:04;;;;;;;;;;;;;;;;;;6071293;23;20470;-92
2021/12/01 10:35:36;;;;;;;7.65;1.73;;;;;;;;;;6120600;23;19923;-91
2021/12/01 10:38:04;;;;;;;12.02;1.70;;;;;;;;;;6071131;23;20029;-92
2021/12/01 10:40:30;;;;;;;12.68;2.05;;;;;;;;;;6096320;23;20025;-93
2021/12/01 10:43:00;;;;;;;15.75;1.92;;;;;;;;;;6094110;23;20018;-92
2021/12/01 10:45:31;;;;;;;14.20;2.10;;;;;;;;;;6095092;23;20195;-94
2021/12/01 10:47:58;;;;;;;15.20;1.92;;;;;;;;;;6070448;23;20030;-93
2021/12/01 10:50:26;;;;;;;8.02;1.55;;;;;;;;;;6071373;23;20046;-94
2021/12/01 10:52:53;;;;;;;14.43;2.33;;;;;;;;;;6095479;23;20064;-93
2021/12/01 10:55:21;;;;;;;10.65;2.70;;;;;;;;;;6070569;23;20018;-92
2021/12/01 10:57:48;;;;;;;10.95;1.73;;;;;;;;;;6095051;23;20022;-93
2021/12/01 11:00:19;;;;;;;11.10;2.20;;;;;;;;;;6094817;23;20022;-93
2021/12/01 11:02:45;;;;;;;10.93;1.70;;;;;;;;;;6094428;23;20025;-90
2021/12/01 11:05:24;;;;;;;11.63;1.83;;;;;;;;;;6072741;23;20475;-93
2021/12/01 11:07:50;;;;;;;10.98;1.83;;;;;;;;;;6071549;23;20049;-92
2021/12/01 11:10:18;;;;;;;14.65;2.30;;;;;;;;;;6071538;23;20022;-93
2021/12/01 11:12:46;;;;;;;10.02;1.90;;;;;;;;;;6071951;23;20116;-95
2021/12/01 11:15:36;;;;;;;10.68;2.25;;;;;;;;;;6072612;23;20022;-92
2021/12/01 11:18:02;;;;;;;19.40;2.42;;;;;;;;;;6058342;23;20045;-93
2021/12/01 11:20:33;;;;;;;16.90;2.30;;;;;;;;;;6096493;23;20072;-93
2021/12/01 11:23:07;;;;;;;17.15;2.33;;;;;;;;;;6073325;23;20332;-93
2021/12/01 11:25:35;;;;;;;20.10;3.03;;;;;;;;;;6072658;23;20370;-94
2021/12/01 11:28:02;;;;;;;14.40;2.67;;;;;;;;;;6072848;23;20375;-94
2021/12/01 11:30:28;;;;;;;16.00;2.17;;;;;;;;;;6072976;23;20018;-93
2021/12/01 11:32:54;;;;;;;17.52;2.70;;;;;;;;;;6072849;23;20024;-92
2021/12/01 11:35:20;;;;;;;11.05;2.30;;;;;;;;;;6073023;23;20072;-93
2021/12/01 11:37:54;;;;;;;16.08;2.78;;;;;;;;;;6072867;23;20018;-93
2021/12/01 11:40:20;;;;;;;18.83;5.03;;;;;;;;;;6072629;23;20018;-94
2021/12/01 11:42:47;;;;;;;17.75;2.92;;;;;;;;;;6072399;23;20029;-95
2021/12/01 11:45:13;;;;;;;19.48;3.30;;;;;;;;;;6072927;23;20057;-93
2021/12/01 11:47:45;;;;;;;19.20;3.33;;;;;;;;;;6072780;23;20014;-95
2021/12/01 11:50:13;;;;;;;13.88;3.63;;;;;;;;;;6073013;23;20025;-95
2021/12/01 11:52:53;;;;;;;18.45;3.75;;;;;;;;;;6073094;23;20101;-96
2021/12/01 11:55:39;;;;;;;18.10;3.38;;;;;;;;;;6071878;23;20073;-95
2021/12/01 11:58:05;;;;;;;19.92;3.50;;;;;;;;;;6072921;23;20045;-96
2021/12/01 12:00:48;;;;;;;24.52;9.38;;;;;;;;;;6073107;23;20022;-93
2021/12/01 12:03:25;;;;;;;21.13;3.67;;;;;;;;;;6096489;23;20022;-95
2021/12/01 12:06:10;;;;;;;22.80;4.72;;;;;;;;;;6072423;23;20026;-92
2021/12/01 12:08:56;;;;;;;21.65;4.28;;;;;;;;;;6072505;23;20018;-93
2021/12/01 12:11:34;;;;;;;19.70;3.20;;;;;;;;;;6072923;23;20026;-94
2021/12/01 12:14:01;;;;;;;18.08;3.42;;;;;;;;;;6072099;23;20018;-94
2021/12/01 12:16:27;;;;;;;18.48;3.55;;;;;;;;;;6072440;23;20045;-92
2021/12/01 12:18:53;;;;;;;14.30;3.28;;;;;;;;;;6069501;23;20025;-93
2021/12/01 12:21:46;;;;;;;17.00;3.83;;;;;;;;;;6072594;23;20018;-94
2021/12/01 12:24:17;;;;;;;19.73;3.65;;;;;;;;;;6073087;23;20026;-95
2021/12/01 12:26:45;;;;;;;24.23;3.33;;;;;;;;;;6070574;23;20097;-92
2021/12/01 12:29:13;;;;;;;26.50;3.67;;;;;;;;;;6070807;23;20096;-93
2021/12/01 12:31:39;;;;;;;22.50;3.50;;;;;;;;;;6071396;23;20018;-91
2021/12/01 12:34:09;;;;;;;31.70;4.38;;;;;;;;;;6071558;23;20018;-90
2021/12/01 12:36:35;;;;;;;25.05;3.70;;;;;;;;;;6072506;23;20068;-91
2021/12/01 12:39:09;;;;;;;33.33;4.32;;;;;;;;;;6070795;23;20030;-90
2021/12/01 12:42:12;;;;;;;28.67;4.35;;;;;;;;;;6071684;23;20049;-91
2021/12/01 12:44:41;;;;;;;29.38;4.40;;;;;;;;;;6012368;23;20032;-92
2021/12/01 12:47:12;;;;;;;18.38;2.83;;;;;;;;;;6069955;23;20512;-93
2021/12/01 12:49:39;;;;;;;21.90;3.53;;;;;;;;;;6071625;23;20020;-91
2021/12/01 12:52:24;;;;;;;22.85;2.75;;;;;;;;;;6071713;23;20018;-91
2021/12/01 12:55:10;;;;;;;18.70;3.00;;;;;;;;;;6070558;23;20101;-91
2021/12/01 12:57:50;;;;;;;20.60;3.47;;;;;;;;;;6071178;23;20060;-91
2021/12/01 13:00:16;;;;;;;18.27;2.78;;;;;;;;;;6072076;23;20014;-91
2021/12/01 13:02:42;;;;;;;16.02;2.80;;;;;;;;;;6071309;23;20123;-91
2021/12/01 13:05:08;;;;;;;19.15;3.20;;;;;;;;;;6072114;23;20021;-91
2021/12/01 13:07:36;;;;;;;19.85;3.25;;;;;;;;;;6071392;23;20025;-92
2021/12/01 13:10:05;;;;;;;19.00;3.60;;;;;;;;;;6070987;23;20014;-91
2021/12/01 13:12:43;;;;;;;15.00;2.83;;;;;;;;;;6071739;23;20028;-91
2021/12/01 13:15:17;;;;;;;18.67;2.95;;;;;;;;;;6072373;23;20018;-91
2021/12/01 13:17:46;;;;;;;13.07;3.13;;;;;;;;;;6071275;23;20018;-92
2021/12/01 13:20:12;;;;;;;14.02;2.60;;;;;;;;;;6070776;23;20025;-92
2021/12/01 13:22:38;;;;;;;14.93;2.97;;;;;;;;;;6070688;23;20022;-90
2021/12/01 13:25:04;;;;;;;16.75;2.78;;;;;;;;;;6070946;23;20077;-91
2021/12/01 13:27:42;;;;;;;16.65;3.63;;;;;;;;;;6071006;23;20108;-90
2021/12/01 13:30:09;;;;;;;11.60;2.90;;;;;;;;;;6071144;23;20018;-93
2021/12/01 13:32:37;;;;;;;15.05;2.63;;;;;;;;;;6070670;23;20628;-91
2021/12/01 13:35:03;;;;;;;18.15;2.95;;;;;;;;;;6070640;23;20018;-91
2021/12/01 13:37:29;;;;;;;14.15;2.00;;;;;;;;;;6071408;23;20022;-91
2021/12/01 13:39:55;;;;;;;12.75;2.15;;;;;;;;;;6070967;23;20459;-92
2021/12/01 13:42:23;;;;;;;11.45;2.63;;;;;;;;;;6071884;23;20128;-91
2021/12/01 13:44:49;;;;;;;13.50;2.35;;;;;;;;;;6071321;23;20478;-92
2021/12/01 13:47:15;;;;;;;14.02;2.63;;;;;;;;;;6071428;23;20324;-92
2021/12/01 13:49:55;;;;;;;9.80;2.42;;;;;;;;;;6070832;23;20036;-91
2021/12/01 13:52:28;;;;;;;17.08;3.00;;;;;;;;;;6071403;23;20022;-90
2021/12/01 13:54:55;;;;;;;14.75;2.28;;;;;;;;;;6070361;23;20018;-91
2021/12/01 13:57:21;;;;;;;18.50;3.25;;;;;;;;;;6071061;23;20033;-91
2021/12/01 13:59:52;;;;;;;16.75;2.95;;;;;;;;;;6071065;23;20112;-91
2021/12/01 14:02:24;;;;;;;20.33;2.65;;;;;;;;;;6070842;23;20044;-90
2021/12/01 14:04:51;;;;;;;43.97;4.97;;;;;;;;;;6070480;23;20018;-90
2021/12/01 14:07:17;;;;;;;26.98;3.17;;;;;;;;;;6071529;23;20025;-92
2021/12/01 14:09:55;;;;;;;12.20;2.35;;;;;;;;;;6070806;23;20053;-91
2021/12/01 14:12:22;;;;;;;20.33;2.50;;;;;;;;;;6095708;23;20478;-90
2021/12/01 14:14:49;;;;;;;17.65;2.20;;;;;;;;;;6070972;23;20029;-90
2021/12/01 14:17:15;;;;;;;27.08;2.40;;;;;;;;;;6071202;23;20017;-90
2021/12/01 14:19:41;;;;;;;23.02;3.53;;;;;;;;;;6070849;23;20474;-91
2021/12/01 14:22:11;;;;;;;29.02;3.70;;;;;;;;;;6071496;23;20053;-91
2021/12/01 14:24:37;;;;;;;17.45;2.15;;;;;;;;;;6095465;23;20022;-91
2021/12/01 14:27:08;;;;;;;15.13;2.35;;;;;;;;;;6095131;23;20120;-92
2021/12/01 14:29:39;;;;;;;13.40;2.15;;;;;;;;;;6071532;23;20053;-92
2021/12/01 14:32:10;;;;;;;8.73;2.17;;;;;;;;;;6094631;23;20035;-92
2021/12/01 14:34:38;;;;;;;13.98;2.70;;;;;;;;;;6094795;23;20521;-92
2021/12/01 14:37:08;;;;;;;14.73;2.90;;;;;;;;;;6070894;23;20015;-89
2021/12/01 14:39:34;;;;;;;14.07;2.70;;;;;;;;;;6095582;23;20069;-92
2021/12/01 14:42:00;;;;;;;12.60;2.45;;;;;;;;;;6095945;23;20020;-90